CTV447 WIII-WAHQ
Flight info
| Callsign | CTV447 |
|---|---|
| Flight time | 1h 15m |
| Altitude | 33000 |
| Route | CA T3 ANY W17N PURWO |
| Aircraft | A320/M-SDE3FGHIRWY/LB1 |
Departure
| Time | 2026-05-07 23:31 |
|---|---|
| Airport | Soekarno-Hatta International Airport (WIII) |
Arrival
| Time | 2026-05-08 00:46 |
|---|---|
| Airport | Adisoemarmo International Airport (WAHQ) |
| Time | Latitude | Longitude | Altitude | Speed | Heading |
|---|---|---|---|---|---|
| 2026-05-07 22:39 | -6.13241 | 106.65301 | 42 ft | 0 kts | 337° |
| 2026-05-07 23:11 | -6.13249 | 106.65305 | 42 ft | 2 kts | 337° |
| 2026-05-07 23:11 | -6.13263 | 106.65311 | 42 ft | 2 kts | 348° |
| 2026-05-07 23:12 | -6.13277 | 106.65311 | 42 ft | 2 kts | 6° |
| 2026-05-07 23:12 | -6.13291 | 106.65308 | 42 ft | 2 kts | 24° |
| 2026-05-07 23:12 | -6.13304 | 106.65300 | 42 ft | 2 kts | 42° |
| 2026-05-07 23:12 | -6.13314 | 106.65288 | 42 ft | 2 kts | 60° |
| 2026-05-07 23:13 | -6.13318 | 106.65281 | 42 ft | 1 kts | 71° |
| 2026-05-07 23:13 | -6.13319 | 106.65277 | 42 ft | 0 kts | 69° |
| 2026-05-07 23:16 | -6.13319 | 106.65279 | 42 ft | 0 kts | 71° |
| 2026-05-07 23:16 | -6.13313 | 106.65294 | 42 ft | 3 kts | 69° |
| 2026-05-07 23:16 | -6.13301 | 106.65328 | 42 ft | 7 kts | 71° |
| 2026-05-07 23:16 | -6.13278 | 106.65381 | 42 ft | 8 kts | 73° |
| 2026-05-07 23:17 | -6.13274 | 106.65447 | 42 ft | 10 kts | 104° |
| 2026-05-07 23:17 | -6.13307 | 106.65505 | 42 ft | 9 kts | 127° |
| 2026-05-07 23:17 | -6.13355 | 106.65562 | 42 ft | 11 kts | 130° |
| 2026-05-07 23:17 | -6.13423 | 106.65625 | 42 ft | 15 kts | 142° |
| 2026-05-07 23:18 | -6.13415 | 106.65727 | 42 ft | 16 kts | 63° |
| 2026-05-07 23:18 | -6.13378 | 106.65827 | 42 ft | 14 kts | 75° |
| 2026-05-07 23:18 | -6.13343 | 106.65913 | 42 ft | 13 kts | 66° |
| 2026-05-07 23:18 | -6.13303 | 106.66016 | 42 ft | 16 kts | 68° |
| 2026-05-07 23:19 | -6.13272 | 106.66124 | 42 ft | 15 kts | 79° |
| 2026-05-07 23:19 | -6.13232 | 106.66202 | 42 ft | 11 kts | 64° |
| 2026-05-07 23:19 | -6.13205 | 106.66267 | 42 ft | 10 kts | 68° |
| 2026-05-07 23:19 | -6.13176 | 106.66343 | 42 ft | 12 kts | 70° |
| 2026-05-07 23:20 | -6.13143 | 106.66429 | 42 ft | 14 kts | 68° |
| 2026-05-07 23:20 | -6.13103 | 106.66530 | 42 ft | 16 kts | 70° |
| 2026-05-07 23:20 | -6.13057 | 106.66643 | 42 ft | 18 kts | 67° |
| 2026-05-07 23:20 | -6.13005 | 106.66765 | 42 ft | 18 kts | 68° |
| 2026-05-07 23:21 | -6.12968 | 106.66858 | 42 ft | 10 kts | 71° |
| 2026-05-07 23:21 | -6.12947 | 106.66912 | 42 ft | 8 kts | 67° |
| 2026-05-07 23:21 | -6.12925 | 106.66969 | 42 ft | 10 kts | 70° |
| 2026-05-07 23:21 | -6.12894 | 106.67047 | 42 ft | 13 kts | 68° |
| 2026-05-07 23:22 | -6.12857 | 106.67148 | 42 ft | 15 kts | 75° |
| 2026-05-07 23:22 | -6.12821 | 106.67234 | 42 ft | 7 kts | 60° |
| 2026-05-07 23:22 | -6.12809 | 106.67264 | 42 ft | 0 kts | 69° |
| 2026-05-07 23:22 | -6.12807 | 106.67267 | 42 ft | 0 kts | 67° |
| 2026-05-07 23:23 | -6.12806 | 106.67271 | 42 ft | 0 kts | 70° |
| 2026-05-07 23:24 | -6.12801 | 106.67282 | 42 ft | 2 kts | 67° |
| 2026-05-07 23:24 | -6.12788 | 106.67318 | 42 ft | 8 kts | 73° |
| 2026-05-07 23:25 | -6.12811 | 106.67379 | 42 ft | 11 kts | 155° |
| 2026-05-07 23:25 | -6.12862 | 106.67396 | 42 ft | 0 kts | 160° |
| 2026-05-07 23:29 | -6.12865 | 106.67396 | 42 ft | 0 kts | 163° |
| 2026-05-07 23:29 | -6.12886 | 106.67403 | 42 ft | 6 kts | 159° |
| 2026-05-07 23:29 | -6.12944 | 106.67423 | 42 ft | 11 kts | 178° |
| 2026-05-07 23:30 | -6.13039 | 106.67409 | 42 ft | 8 kts | 217° |
| 2026-05-07 23:30 | -6.13059 | 106.67364 | 42 ft | 13 kts | 252° |
| 2026-05-07 23:30 | -6.13164 | 106.67093 | 42 ft | 72 kts | 248° |
| 2026-05-07 23:30 | -6.13428 | 106.66441 | 42 ft | 128 kts | 249° |
| 2026-05-07 23:31 | -6.13797 | 106.65446 | 176 ft | 165 kts | 254° |
| 2026-05-07 23:31 | -6.14154 | 106.64359 | 826 ft | 164 kts | 251° |
| 2026-05-07 23:31 | -6.14576 | 106.63299 | 1448 ft | 169 kts | 250° |
| 2026-05-07 23:31 | -6.14977 | 106.62209 | 1933 ft | 170 kts | 252° |
| 2026-05-07 23:32 | -6.15407 | 106.61052 | 2157 ft | 186 kts | 250° |
| 2026-05-07 23:32 | -6.15920 | 106.59757 | 2176 ft | 215 kts | 249° |
| 2026-05-07 23:32 | -6.16550 | 106.58233 | 2160 ft | 254 kts | 248° |
| 2026-05-07 23:32 | -6.17241 | 106.56573 | 2744 ft | 264 kts | 248° |
| 2026-05-07 23:33 | -6.17258 | 106.56532 | 2768 ft | 264 kts | 248° |
| 2026-05-07 23:33 | -6.17926 | 106.54889 | 3494 ft | 269 kts | 248° |
| 2026-05-07 23:33 | -6.18678 | 106.53153 | 4280 ft | 271 kts | 240° |
| 2026-05-07 23:33 | -6.19918 | 106.51760 | 5039 ft | 273 kts | 212° |
| 2026-05-07 23:34 | -6.21704 | 106.51150 | 5771 ft | 275 kts | 182° |
| 2026-05-07 23:34 | -6.23539 | 106.51508 | 6487 ft | 278 kts | 156° |
| 2026-05-07 23:34 | -6.25269 | 106.52371 | 7226 ft | 281 kts | 154° |
| 2026-05-07 23:34 | -6.26966 | 106.53355 | 7940 ft | 284 kts | 140° |
| 2026-05-07 23:35 | -6.28150 | 106.54909 | 8645 ft | 286 kts | 112° |
| 2026-05-07 23:35 | -6.28484 | 106.56860 | 9327 ft | 289 kts | 85° |
| 2026-05-07 23:35 | -6.27872 | 106.58763 | 9999 ft | 292 kts | 57° |
| 2026-05-07 23:35 | -6.26434 | 106.60287 | 10273 ft | 312 kts | 36° |
| 2026-05-07 23:36 | -6.24600 | 106.61560 | 10333 ft | 337 kts | 40° |
| 2026-05-07 23:36 | -6.22922 | 106.63316 | 10489 ft | 359 kts | 52° |
| 2026-05-07 23:36 | -6.21349 | 106.65372 | 10631 ft | 380 kts | 53° |
| 2026-05-07 23:36 | -6.19863 | 106.67622 | 11063 ft | 392 kts | 66° |
| 2026-05-07 23:37 | -6.19283 | 106.70224 | 11852 ft | 392 kts | 91° |
| 2026-05-07 23:37 | -6.19864 | 106.72922 | 12517 ft | 396 kts | 111° |
| 2026-05-07 23:37 | -6.20958 | 106.75429 | 13183 ft | 399 kts | 114° |
| 2026-05-07 23:37 | -6.22115 | 106.77991 | 13868 ft | 402 kts | 115° |
| 2026-05-07 23:38 | -6.23310 | 106.80527 | 14507 ft | 406 kts | 116° |
| 2026-05-07 23:38 | -6.24537 | 106.83064 | 15143 ft | 409 kts | 116° |
| 2026-05-07 23:38 | -6.25795 | 106.85662 | 15777 ft | 412 kts | 116° |
| 2026-05-07 23:38 | -6.27055 | 106.88251 | 16382 ft | 415 kts | 116° |
| 2026-05-07 23:39 | -6.28380 | 106.90819 | 16970 ft | 418 kts | 118° |
| 2026-05-07 23:39 | -6.29734 | 106.93391 | 17547 ft | 421 kts | 117° |
| 2026-05-07 23:39 | -6.31107 | 106.96023 | 18120 ft | 424 kts | 117° |
| 2026-05-07 23:39 | -6.32479 | 106.98644 | 18666 ft | 426 kts | 117° |
| 2026-05-07 23:40 | -6.33866 | 107.01291 | 19201 ft | 429 kts | 117° |
| 2026-05-07 23:40 | -6.35250 | 107.03934 | 19717 ft | 432 kts | 117° |
| 2026-05-07 23:40 | -6.36644 | 107.06596 | 20216 ft | 435 kts | 117° |
| 2026-05-07 23:40 | -6.38073 | 107.09323 | 20696 ft | 438 kts | 117° |
| 2026-05-07 23:41 | -6.39488 | 107.12027 | 21171 ft | 440 kts | 117° |
| 2026-05-07 23:41 | -6.40906 | 107.14735 | 21622 ft | 443 kts | 117° |
| 2026-05-07 23:41 | -6.42347 | 107.17488 | 22065 ft | 446 kts | 117° |
| 2026-05-07 23:41 | -6.43795 | 107.20255 | 22491 ft | 449 kts | 117° |
| 2026-05-07 23:42 | -6.45239 | 107.23014 | 22906 ft | 451 kts | 117° |
| 2026-05-07 23:42 | -6.46711 | 107.25828 | 23317 ft | 454 kts | 117° |
| 2026-05-07 23:42 | -6.48168 | 107.28610 | 23711 ft | 456 kts | 117° |
| 2026-05-07 23:42 | -6.49663 | 107.31469 | 24096 ft | 459 kts | 117° |
| 2026-05-07 23:43 | -6.51143 | 107.34300 | 24466 ft | 461 kts | 117° |
| 2026-05-07 23:43 | -6.52643 | 107.37167 | 24822 ft | 463 kts | 117° |
| 2026-05-07 23:43 | -6.54128 | 107.40009 | 25174 ft | 466 kts | 117° |
| 2026-05-07 23:43 | -6.55614 | 107.42879 | 25552 ft | 466 kts | 115° |
| 2026-05-07 23:44 | -6.56742 | 107.45963 | 26043 ft | 463 kts | 103° |
| 2026-05-07 23:44 | -6.57230 | 107.49108 | 26514 ft | 461 kts | 96° |
| 2026-05-07 23:44 | -6.57569 | 107.52222 | 26930 ft | 460 kts | 97° |
| 2026-05-07 23:44 | -6.57975 | 107.55411 | 27358 ft | 459 kts | 97° |
| 2026-05-07 23:45 | -6.58354 | 107.58549 | 27771 ft | 458 kts | 97° |
| 2026-05-07 23:45 | -6.58729 | 107.61717 | 28184 ft | 457 kts | 97° |
| 2026-05-07 23:45 | -6.59112 | 107.64906 | 28563 ft | 456 kts | 97° |
| 2026-05-07 23:45 | -6.59488 | 107.68063 | 28944 ft | 455 kts | 97° |
| 2026-05-07 23:46 | -6.59859 | 107.71178 | 29333 ft | 453 kts | 97° |
| 2026-05-07 23:46 | -6.60237 | 107.74339 | 29692 ft | 453 kts | 97° |
| 2026-05-07 23:46 | -6.60611 | 107.77472 | 30033 ft | 452 kts | 97° |
| 2026-05-07 23:46 | -6.60981 | 107.80579 | 30353 ft | 451 kts | 97° |
| 2026-05-07 23:47 | -6.61357 | 107.83730 | 30678 ft | 450 kts | 97° |
| 2026-05-07 23:47 | -6.61727 | 107.86843 | 31001 ft | 449 kts | 96° |
| 2026-05-07 23:47 | -6.62096 | 107.89936 | 31301 ft | 448 kts | 96° |
| 2026-05-07 23:47 | -6.62467 | 107.93058 | 31582 ft | 448 kts | 96° |
| 2026-05-07 23:48 | -6.62833 | 107.96160 | 31856 ft | 447 kts | 96° |
| 2026-05-07 23:48 | -6.63197 | 107.99252 | 32139 ft | 446 kts | 96° |
| 2026-05-07 23:48 | -6.63561 | 108.02344 | 32395 ft | 445 kts | 96° |
| 2026-05-07 23:48 | -6.63926 | 108.05444 | 32627 ft | 445 kts | 96° |
| 2026-05-07 23:49 | -6.64288 | 108.08520 | 32841 ft | 437 kts | 96° |
| 2026-05-07 23:49 | -6.64647 | 108.11539 | 32850 ft | 436 kts | 96° |
| 2026-05-07 23:49 | -6.65364 | 108.17622 | 32856 ft | 445 kts | 96° |
| 2026-05-07 23:50 | -6.66089 | 108.23786 | 32859 ft | 444 kts | 96° |
| 2026-05-07 23:50 | -6.66817 | 108.29965 | 32861 ft | 443 kts | 96° |
| 2026-05-07 23:51 | -6.67542 | 108.36132 | 32861 ft | 444 kts | 96° |
| 2026-05-07 23:51 | -6.68264 | 108.42276 | 32860 ft | 444 kts | 96° |
| 2026-05-07 23:52 | -6.68985 | 108.48422 | 32860 ft | 444 kts | 96° |
| 2026-05-07 23:52 | -6.69709 | 108.54595 | 32860 ft | 444 kts | 96° |
| 2026-05-07 23:53 | -6.70604 | 108.60721 | 32860 ft | 444 kts | 98° |
| 2026-05-07 23:53 | -6.71478 | 108.66488 | 32861 ft | 444 kts | 98° |
| 2026-05-07 23:54 | -6.72431 | 108.72730 | 32862 ft | 444 kts | 98° |
| 2026-05-07 23:54 | -6.73369 | 108.78879 | 32862 ft | 444 kts | 98° |
| 2026-05-07 23:55 | -6.74304 | 108.85004 | 32862 ft | 444 kts | 98° |
| 2026-05-07 23:55 | -6.75236 | 108.91119 | 32861 ft | 444 kts | 98° |
| 2026-05-07 23:56 | -6.76169 | 108.97250 | 32862 ft | 444 kts | 98° |
| 2026-05-07 23:56 | -6.77101 | 109.03373 | 32861 ft | 444 kts | 98° |
| 2026-05-07 23:57 | -6.78034 | 109.09513 | 32861 ft | 444 kts | 98° |
| 2026-05-07 23:57 | -6.78967 | 109.15653 | 32861 ft | 444 kts | 99° |
| 2026-05-07 23:58 | -6.79891 | 109.21744 | 32861 ft | 444 kts | 99° |
| 2026-05-07 23:58 | -6.80823 | 109.27889 | 32861 ft | 444 kts | 99° |
| 2026-05-07 23:59 | -6.81751 | 109.34016 | 32860 ft | 444 kts | 99° |
| 2026-05-07 23:59 | -6.82683 | 109.40173 | 32860 ft | 445 kts | 99° |
| 2026-05-08 00:00 | -6.83612 | 109.46316 | 32860 ft | 444 kts | 99° |
| 2026-05-08 00:00 | -6.84536 | 109.52434 | 32860 ft | 444 kts | 99° |
| 2026-05-08 00:01 | -6.85001 | 109.55506 | 32726 ft | 447 kts | 99° |
| 2026-05-08 00:01 | -6.85464 | 109.58569 | 32434 ft | 448 kts | 99° |
| 2026-05-08 00:01 | -6.85938 | 109.61687 | 32120 ft | 445 kts | 99° |
| 2026-05-08 00:01 | -6.86398 | 109.64711 | 31812 ft | 444 kts | 99° |
| 2026-05-08 00:02 | -6.86869 | 109.67812 | 31502 ft | 446 kts | 99° |
| 2026-05-08 00:02 | -6.87336 | 109.70893 | 31190 ft | 448 kts | 99° |
| 2026-05-08 00:02 | -6.87804 | 109.73981 | 30868 ft | 449 kts | 99° |
| 2026-05-08 00:02 | -6.88276 | 109.77087 | 30533 ft | 449 kts | 99° |
| 2026-05-08 00:03 | -6.88742 | 109.80167 | 30193 ft | 450 kts | 99° |
| 2026-05-08 00:03 | -6.89216 | 109.83282 | 29700 ft | 453 kts | 99° |
| 2026-05-08 00:03 | -6.89693 | 109.86415 | 29088 ft | 453 kts | 99° |
| 2026-05-08 00:03 | -6.90171 | 109.89558 | 28457 ft | 451 kts | 99° |
| 2026-05-08 00:04 | -6.90640 | 109.92638 | 27835 ft | 450 kts | 99° |
| 2026-05-08 00:04 | -6.91112 | 109.95740 | 27206 ft | 448 kts | 99° |
| 2026-05-08 00:04 | -6.91581 | 109.98824 | 26581 ft | 446 kts | 99° |
| 2026-05-08 00:04 | -6.92049 | 110.01899 | 25955 ft | 444 kts | 99° |
| 2026-05-08 00:05 | -6.92497 | 110.04848 | 25355 ft | 443 kts | 99° |
| 2026-05-08 00:05 | -6.92964 | 110.07921 | 24729 ft | 441 kts | 99° |
| 2026-05-08 00:05 | -6.93424 | 110.10947 | 24112 ft | 439 kts | 99° |
| 2026-05-08 00:05 | -6.93882 | 110.13966 | 23496 ft | 437 kts | 99° |
| 2026-05-08 00:06 | -6.94340 | 110.16981 | 22881 ft | 434 kts | 99° |
| 2026-05-08 00:06 | -6.94796 | 110.19984 | 22269 ft | 432 kts | 99° |
| 2026-05-08 00:06 | -6.95243 | 110.22933 | 21685 ft | 429 kts | 99° |
| 2026-05-08 00:06 | -6.95690 | 110.25881 | 21105 ft | 426 kts | 99° |
| 2026-05-08 00:07 | -6.96139 | 110.28837 | 20525 ft | 423 kts | 99° |
| 2026-05-08 00:07 | -6.96576 | 110.31721 | 19952 ft | 420 kts | 99° |
| 2026-05-08 00:07 | -6.97016 | 110.34628 | 19362 ft | 418 kts | 99° |
| 2026-05-08 00:07 | -6.97596 | 110.37444 | 18805 ft | 414 kts | 109° |
| 2026-05-08 00:08 | -6.98836 | 110.40056 | 18261 ft | 410 kts | 121° |
| 2026-05-08 00:08 | -7.00266 | 110.42456 | 17658 ft | 398 kts | 121° |
| 2026-05-08 00:08 | -7.01631 | 110.44823 | 17054 ft | 386 kts | 121° |
| 2026-05-08 00:08 | -7.02971 | 110.47094 | 16489 ft | 375 kts | 121° |
| 2026-05-08 00:09 | -7.04300 | 110.49316 | 15951 ft | 370 kts | 121° |
| 2026-05-08 00:09 | -7.05628 | 110.51543 | 15423 ft | 369 kts | 121° |
| 2026-05-08 00:09 | -7.06952 | 110.53764 | 14897 ft | 367 kts | 121° |
| 2026-05-08 00:09 | -7.08254 | 110.55947 | 14380 ft | 364 kts | 121° |
| 2026-05-08 00:10 | -7.09544 | 110.58109 | 13869 ft | 362 kts | 122° |
| 2026-05-08 00:10 | -7.10838 | 110.60274 | 13359 ft | 359 kts | 122° |
| 2026-05-08 00:10 | -7.12120 | 110.62406 | 12872 ft | 356 kts | 122° |
| 2026-05-08 00:10 | -7.13398 | 110.64541 | 12410 ft | 354 kts | 122° |
| 2026-05-08 00:11 | -7.14666 | 110.66670 | 11937 ft | 353 kts | 121° |
| 2026-05-08 00:11 | -7.15905 | 110.68759 | 11463 ft | 350 kts | 121° |
| 2026-05-08 00:11 | -7.17153 | 110.70856 | 10981 ft | 348 kts | 121° |
| 2026-05-08 00:11 | -7.18461 | 110.72890 | 10617 ft | 343 kts | 130° |
| 2026-05-08 00:12 | -7.20355 | 110.74311 | 10442 ft | 341 kts | 159° |
| 2026-05-08 00:12 | -7.22627 | 110.74773 | 10301 ft | 333 kts | 176° |
| 2026-05-08 00:12 | -7.24897 | 110.74885 | 10105 ft | 324 kts | 178° |
| 2026-05-08 00:12 | -7.27126 | 110.74943 | 9819 ft | 318 kts | 179° |
| 2026-05-08 00:13 | -7.29297 | 110.74944 | 9458 ft | 306 kts | 180° |
| 2026-05-08 00:13 | -7.31368 | 110.74921 | 9117 ft | 295 kts | 180° |
| 2026-05-08 00:13 | -7.33400 | 110.74894 | 8789 ft | 290 kts | 181° |
| 2026-05-08 00:13 | -7.35388 | 110.74862 | 8481 ft | 288 kts | 181° |
| 2026-05-08 00:14 | -7.37391 | 110.74827 | 8163 ft | 286 kts | 181° |
| 2026-05-08 00:14 | -7.39356 | 110.74792 | 7850 ft | 285 kts | 181° |
| 2026-05-08 00:14 | -7.41333 | 110.74757 | 7535 ft | 284 kts | 181° |
| 2026-05-08 00:14 | -7.43309 | 110.74721 | 7218 ft | 282 kts | 181° |
| 2026-05-08 00:15 | -7.45252 | 110.74687 | 6905 ft | 281 kts | 181° |
| 2026-05-08 00:15 | -7.47220 | 110.74651 | 6577 ft | 281 kts | 180° |
| 2026-05-08 00:15 | -7.49149 | 110.74862 | 6048 ft | 285 kts | 161° |
| 2026-05-08 00:15 | -7.50807 | 110.75884 | 5683 ft | 282 kts | 133° |
| 2026-05-08 00:16 | -7.51752 | 110.77567 | 5408 ft | 276 kts | 103° |
| 2026-05-08 00:16 | -7.51781 | 110.79474 | 5140 ft | 272 kts | 81° |
| 2026-05-08 00:16 | -7.51547 | 110.81364 | 4825 ft | 271 kts | 89° |
| 2026-05-08 00:16 | -7.51631 | 110.83254 | 4509 ft | 269 kts | 96° |
| 2026-05-08 00:17 | -7.51820 | 110.85117 | 4192 ft | 268 kts | 97° |
| 2026-05-08 00:17 | -7.52040 | 110.86976 | 3878 ft | 267 kts | 98° |
| 2026-05-08 00:17 | -7.52288 | 110.88818 | 3570 ft | 266 kts | 98° |
| 2026-05-08 00:17 | -7.52549 | 110.90662 | 3277 ft | 264 kts | 98° |
| 2026-05-08 00:18 | -7.52521 | 110.92457 | 3145 ft | 249 kts | 75° |
| 2026-05-08 00:18 | -7.51691 | 110.93879 | 3096 ft | 230 kts | 40° |
| 2026-05-08 00:18 | -7.50261 | 110.94511 | 3106 ft | 227 kts | 7° |
| 2026-05-08 00:18 | -7.48691 | 110.94637 | 3075 ft | 229 kts | 13° |
| 2026-05-08 00:19 | -7.47347 | 110.95405 | 3038 ft | 224 kts | 56° |
| 2026-05-08 00:19 | -7.46981 | 110.96886 | 3092 ft | 226 kts | 103° |
| 2026-05-08 00:19 | -7.47818 | 110.98196 | 3145 ft | 229 kts | 143° |
| 2026-05-08 00:19 | -7.49129 | 110.99134 | 3101 ft | 230 kts | 140° |
| 2026-05-08 00:20 | -7.50194 | 111.00301 | 2996 ft | 227 kts | 124° |
| 2026-05-08 00:20 | -7.51005 | 111.01667 | 2866 ft | 227 kts | 118° |
| 2026-05-08 00:20 | -7.51722 | 111.03075 | 2676 ft | 227 kts | 116° |
| 2026-05-08 00:20 | -7.52539 | 111.04442 | 2427 ft | 226 kts | 136° |
| 2026-05-08 00:21 | -7.53920 | 111.05065 | 2250 ft | 226 kts | 182° |
| 2026-05-08 00:21 | -7.55332 | 111.04463 | 2122 ft | 228 kts | 230° |
| 2026-05-08 00:21 | -7.55843 | 111.03017 | 2012 ft | 226 kts | 279° |
| 2026-05-08 00:21 | -7.55157 | 111.01621 | 2018 ft | 226 kts | 314° |
| 2026-05-08 00:22 | -7.54094 | 111.00459 | 1959 ft | 226 kts | 312° |
| 2026-05-08 00:22 | -7.53087 | 110.99239 | 1968 ft | 224 kts | 309° |
| 2026-05-08 00:22 | -7.52256 | 110.97973 | 2001 ft | 207 kts | 299° |
| 2026-05-08 00:22 | -7.51705 | 110.96671 | 1951 ft | 199 kts | 290° |
| 2026-05-08 00:23 | -7.51305 | 110.95353 | 1957 ft | 193 kts | 287° |
| 2026-05-08 00:23 | -7.50994 | 110.94080 | 1963 ft | 183 kts | 284° |
| 2026-05-08 00:23 | -7.50724 | 110.92825 | 1958 ft | 180 kts | 284° |
| 2026-05-08 00:23 | -7.50487 | 110.91625 | 1963 ft | 173 kts | 283° |
| 2026-05-08 00:24 | -7.50234 | 110.90422 | 1978 ft | 175 kts | 292° |
| 2026-05-08 00:24 | -7.49494 | 110.89495 | 2038 ft | 173 kts | 330° |
| 2026-05-08 00:24 | -7.48455 | 110.88888 | 2083 ft | 176 kts | 332° |
| 2026-05-08 00:24 | -7.47400 | 110.88242 | 2082 ft | 174 kts | 330° |
| 2026-05-08 00:25 | -7.46300 | 110.87788 | 2100 ft | 171 kts | 2° |
| 2026-05-08 00:25 | -7.45267 | 110.88240 | 2203 ft | 170 kts | 56° |
| 2026-05-08 00:25 | -7.45049 | 110.89341 | 2343 ft | 173 kts | 109° |
| 2026-05-08 00:25 | -7.45625 | 110.90435 | 2441 ft | 177 kts | 123° |
| 2026-05-08 00:26 | -7.46244 | 110.91479 | 2434 ft | 174 kts | 118° |
| 2026-05-08 00:26 | -7.46729 | 110.92600 | 2429 ft | 173 kts | 112° |
| 2026-05-08 00:26 | -7.47172 | 110.93720 | 2438 ft | 173 kts | 113° |
| 2026-05-08 00:26 | -7.47630 | 110.94844 | 2446 ft | 173 kts | 113° |
| 2026-05-08 00:27 | -7.48089 | 110.95971 | 2452 ft | 173 kts | 113° |
| 2026-05-08 00:27 | -7.48598 | 110.97059 | 2462 ft | 173 kts | 129° |
| 2026-05-08 00:27 | -7.49620 | 110.97644 | 2537 ft | 174 kts | 181° |
| 2026-05-08 00:27 | -7.50681 | 110.97150 | 2677 ft | 178 kts | 237° |
| 2026-05-08 00:28 | -7.50891 | 110.95959 | 2817 ft | 178 kts | 293° |
| 2026-05-08 00:28 | -7.50129 | 110.95003 | 2945 ft | 179 kts | 322° |
| 2026-05-08 00:28 | -7.49213 | 110.94149 | 2950 ft | 179 kts | 313° |
| 2026-05-08 00:28 | -7.48492 | 110.93153 | 2942 ft | 176 kts | 310° |
| 2026-05-08 00:29 | -7.47497 | 110.92484 | 3000 ft | 172 kts | 347° |
| 2026-05-08 00:29 | -7.46568 | 110.91783 | 3151 ft | 178 kts | 290° |
| 2026-05-08 00:29 | -7.46843 | 110.90598 | 3188 ft | 186 kts | 231° |
| 2026-05-08 00:29 | -7.47722 | 110.89683 | 3100 ft | 180 kts | 228° |
| 2026-05-08 00:30 | -7.48508 | 110.88719 | 2989 ft | 168 kts | 235° |
| 2026-05-08 00:30 | -7.49137 | 110.87741 | 2850 ft | 170 kts | 246° |
| 2026-05-08 00:30 | -7.49483 | 110.86615 | 2678 ft | 165 kts | 260° |
| 2026-05-08 00:30 | -7.49625 | 110.85448 | 2459 ft | 169 kts | 270° |
| 2026-05-08 00:31 | -7.49730 | 110.84284 | 2162 ft | 163 kts | 263° |
| 2026-05-08 00:31 | -7.49926 | 110.83164 | 1708 ft | 164 kts | 260° |
| 2026-05-08 00:31 | -7.50203 | 110.82091 | 1453 ft | 151 kts | 258° |
| 2026-05-08 00:31 | -7.50422 | 110.81093 | 1155 ft | 146 kts | 263° |
| 2026-05-08 00:32 | -7.50623 | 110.80102 | 846 ft | 143 kts | 259° |
| 2026-05-08 00:32 | -7.50865 | 110.79154 | 679 ft | 138 kts | 259° |
| 2026-05-08 00:32 | -7.51068 | 110.78189 | 709 ft | 142 kts | 263° |
| 2026-05-08 00:32 | -7.51274 | 110.77183 | 657 ft | 158 kts | 260° |
| 2026-05-08 00:33 | -7.51534 | 110.76038 | 458 ft | 165 kts | 254° |
| 2026-05-08 00:33 | -7.51785 | 110.74942 | 514 ft | 157 kts | 258° |
| 2026-05-08 00:33 | -7.52015 | 110.73901 | 1081 ft | 148 kts | 256° |
| 2026-05-08 00:33 | -7.52275 | 110.72924 | 1614 ft | 150 kts | 259° |
| 2026-05-08 00:34 | -7.52481 | 110.71918 | 2076 ft | 141 kts | 260° |
| 2026-05-08 00:34 | -7.52655 | 110.70950 | 1807 ft | 150 kts | 268° |
| 2026-05-08 00:34 | -7.52319 | 110.70046 | 1925 ft | 150 kts | 351° |
| 2026-05-08 00:34 | -7.51152 | 110.70067 | 1201 ft | 206 kts | 338° |
| 2026-05-08 00:35 | -7.49827 | 110.69402 | 1953 ft | 207 kts | 334° |
| 2026-05-08 00:35 | -7.48758 | 110.68892 | 2837 ft | 154 kts | 343° |
| 2026-05-08 00:35 | -7.47703 | 110.68718 | 3128 ft | 157 kts | 13° |
| 2026-05-08 00:35 | -7.46780 | 110.69281 | 3360 ft | 163 kts | 63° |
| 2026-05-08 00:36 | -7.46491 | 110.70436 | 3414 ft | 184 kts | 86° |
| 2026-05-08 00:36 | -7.46233 | 110.71815 | 3010 ft | 218 kts | 67° |
| 2026-05-08 00:36 | -7.45345 | 110.73072 | 2983 ft | 223 kts | 53° |
| 2026-05-08 00:36 | -7.44643 | 110.74580 | 3004 ft | 257 kts | 79° |
| 2026-05-08 00:37 | -7.44351 | 110.76410 | 2971 ft | 268 kts | 82° |
| 2026-05-08 00:37 | -7.44054 | 110.78246 | 2970 ft | 263 kts | 81° |
| 2026-05-08 00:37 | -7.43739 | 110.80071 | 2966 ft | 264 kts | 81° |
| 2026-05-08 00:38 | -7.43115 | 110.83725 | 2966 ft | 264 kts | 81° |
| 2026-05-08 00:38 | -7.42923 | 110.84846 | 2966 ft | 264 kts | 81° |
| 2026-05-08 00:38 | -7.42796 | 110.85593 | 2966 ft | 264 kts | 81° |
| 2026-05-08 00:38 | -7.42486 | 110.87402 | 2965 ft | 264 kts | 81° |
| 2026-05-08 00:39 | -7.42174 | 110.89230 | 2965 ft | 264 kts | 81° |
| 2026-05-08 00:39 | -7.41864 | 110.91048 | 2965 ft | 264 kts | 81° |
| 2026-05-08 00:39 | -7.41577 | 110.92863 | 2860 ft | 260 kts | 86° |
| 2026-05-08 00:39 | -7.41891 | 110.94646 | 2423 ft | 263 kts | 121° |
| 2026-05-08 00:40 | -7.43245 | 110.95791 | 2224 ft | 254 kts | 164° |
| 2026-05-08 00:40 | -7.44910 | 110.95938 | 2268 ft | 232 kts | 186° |
| 2026-05-08 00:40 | -7.46413 | 110.95627 | 2250 ft | 214 kts | 195° |
| 2026-05-08 00:40 | -7.47791 | 110.95261 | 2265 ft | 191 kts | 196° |
| 2026-05-08 00:41 | -7.48961 | 110.94625 | 2321 ft | 202 kts | 231° |
| 2026-05-08 00:41 | -7.49397 | 110.93346 | 2430 ft | 190 kts | 269° |
| 2026-05-08 00:41 | -7.49427 | 110.92064 | 2424 ft | 177 kts | 267° |
| 2026-05-08 00:41 | -7.49548 | 110.90883 | 2440 ft | 158 kts | 265° |
| 2026-05-08 00:42 | -7.49663 | 110.89823 | 2444 ft | 152 kts | 267° |
| 2026-05-08 00:42 | -7.49678 | 110.88727 | 2323 ft | 157 kts | 279° |
| 2026-05-08 00:42 | -7.49420 | 110.87669 | 2130 ft | 155 kts | 290° |
| 2026-05-08 00:42 | -7.49331 | 110.86620 | 1923 ft | 151 kts | 264° |
| 2026-05-08 00:43 | -7.49515 | 110.85583 | 1699 ft | 148 kts | 264° |
| 2026-05-08 00:43 | -7.49676 | 110.84566 | 1449 ft | 146 kts | 259° |
| 2026-05-08 00:43 | -7.49946 | 110.83584 | 1148 ft | 148 kts | 255° |
| 2026-05-08 00:43 | -7.50209 | 110.82613 | 918 ft | 141 kts | 251° |
| 2026-05-08 00:44 | -7.50464 | 110.81635 | 785 ft | 146 kts | 258° |
| 2026-05-08 00:44 | -7.50563 | 110.80639 | 684 ft | 141 kts | 268° |
| 2026-05-08 00:44 | -7.50728 | 110.79645 | 679 ft | 145 kts | 258° |
| 2026-05-08 00:44 | -7.50953 | 110.78658 | 667 ft | 146 kts | 259° |
| 2026-05-08 00:45 | -7.51173 | 110.77653 | 561 ft | 144 kts | 257° |
| 2026-05-08 00:45 | -7.51391 | 110.76670 | 411 ft | 146 kts | 261° |
| 2026-05-08 00:45 | -7.51610 | 110.75719 | 405 ft | 134 kts | 259° |
| 2026-05-08 00:45 | -7.51799 | 110.74839 | 422 ft | 106 kts | 258° |
| 2026-05-08 00:46 | -7.51889 | 110.74280 | 432 ft | 58 kts | 258° |
| 2026-05-08 00:46 | -7.51872 | 110.74083 | 433 ft | 11 kts | 328° |
| 2026-05-08 00:46 | -7.51855 | 110.74071 | 436 ft | 0 kts | 332° |
| 2026-05-08 00:47 | -7.51854 | 110.74071 | 436 ft | 0 kts | 328° |